Time;durP1;ratioP1;P1;durP2;ratioP2;P2;SDS_P1;SDS_P2;PMS_P1;PMS_P2;Temp;Humidity;BMP_temperature;BMP_pressure;BME280_temperature;BME280_humidity;BME280_pressure;Samples;Min_cycle;Max_cycle;Signal;HPM_P1;HPM_P2
2021/12/05 00:22:34;;;;;;;68.07;31.83;;;-0.90;99.90;;;;;;8453415;28;20199;-65
2021/12/05 00:26:35;;;;;;;60.67;29.90;;;-0.90;99.90;;;;;;8451622;28;20193;-65
2021/12/05 00:43:55;;;;;;;53.07;26.30;;;-0.80;99.90;;;;;;8454425;28;20173;-66
2021/12/05 00:48:08;;;;;;;58.60;28.60;;;-0.80;99.90;;;;;;8453277;28;20244;-66
2021/12/05 01:17:01;;;;;;;47.67;25.13;;;-0.60;99.90;;;;;;8425446;28;20202;-67
2021/12/05 01:21:08;;;;;;;44.53;22.97;;;-0.60;99.90;;;;;;8418745;28;20221;-70
2021/12/05 01:25:24;;;;;;;41.73;20.83;;;-0.60;99.90;;;;;;8443720;28;20221;-67
2021/12/05 01:38:18;;;;;;;38.53;21.73;;;-0.50;99.90;;;;;;8382695;28;20256;-67
2021/12/05 02:16:46;;;;;;;35.07;18.70;;;-0.20;99.90;;;;;;8446232;28;20181;-65
2021/12/05 02:29:58;;;;;;;32.67;17.77;;;0.00;99.90;;;;;;8441944;28;20227;-67
2021/12/05 02:42:31;;;;;;;33.47;19.53;;;0.10;99.90;;;;;;8450227;28;20190;-66
2021/12/05 02:46:32;;;;;;;34.60;19.67;;;0.10;99.90;;;;;;8450683;28;20180;-67
2021/12/05 02:50:34;;;;;;;33.50;19.03;;;0.20;99.90;;;;;;8424752;28;20180;-66
2021/12/05 02:54:41;;;;;;;38.27;20.57;;;0.20;99.90;;;;;;8421761;28;20197;-67
2021/12/05 02:58:57;;;;;;;39.00;21.53;;;0.30;99.90;;;;;;8425553;28;20213;-65
2021/12/05 03:02:59;;;;;;;43.60;24.80;;;0.40;99.90;;;;;;8441606;28;20184;-66
2021/12/05 03:07:05;;;;;;;38.50;23.33;;;0.40;99.90;;;;;;8451049;27;20171;-66
2021/12/05 03:11:07;;;;;;;37.80;20.90;;;0.40;99.90;;;;;;8435370;28;20303;-67
2021/12/05 03:15:11;;;;;;;35.57;20.40;;;0.40;99.90;;;;;;8437625;28;20199;-69
2021/12/05 03:19:13;;;;;;;38.30;21.33;;;0.50;99.90;;;;;;8444395;28;20201;-66
2021/12/05 03:23:14;;;;;;;35.27;20.77;;;0.50;99.90;;;;;;8426412;28;20227;-65
2021/12/05 03:27:15;;;;;;;31.03;18.67;;;0.50;99.90;;;;;;8445195;28;20199;-66
2021/12/05 03:31:17;;;;;;;35.07;19.57;;;0.60;99.90;;;;;;8439991;28;20198;-66
2021/12/05 03:35:20;;;;;;;35.63;19.37;;;0.60;99.90;;;;;;8449329;28;20219;-66
2021/12/05 03:39:21;;;;;;;34.93;19.20;;;0.60;99.90;;;;;;8448727;28;20304;-67
2021/12/05 03:43:22;;;;;;;38.13;21.27;;;0.60;99.90;;;;;;8447022;28;20256;-65
2021/12/05 03:47:27;;;;;;;36.83;20.13;;;0.70;99.90;;;;;;8449055;28;20189;-66
2021/12/05 03:51:32;;;;;;;38.73;21.73;;;0.70;99.90;;;;;;8432652;28;20178;-67
2021/12/05 03:55:34;;;;;;;33.17;20.83;;;0.70;99.90;;;;;;8470345;27;20183;-66
2021/12/05 03:59:36;;;;;;;40.20;23.13;;;0.70;99.90;;;;;;8450571;28;20196;-66
2021/12/05 04:03:38;;;;;;;38.63;22.83;;;0.80;99.90;;;;;;8429565;28;20181;-67
2021/12/05 04:07:39;;;;;;;34.93;21.43;;;0.80;99.90;;;;;;8451767;28;20221;-66
2021/12/05 04:11:46;;;;;;;36.13;23.27;;;0.80;99.90;;;;;;8440872;28;20184;-68
2021/12/05 04:15:49;;;;;;;44.67;24.80;;;0.80;99.90;;;;;;8420424;28;20183;-69
2021/12/05 04:19:51;;;;;;;38.93;24.07;;;0.80;99.90;;;;;;8420500;28;20203;-66
2021/12/05 04:23:52;;;;;;;40.17;23.77;;;0.80;99.90;;;;;;8420936;28;20220;-67
2021/12/05 04:27:55;;;;;;;37.07;21.47;;;0.90;99.90;;;;;;8437759;28;20211;-66
2021/12/05 04:31:55;;;;;;;33.87;21.63;;;0.90;99.90;;;;;;8434871;28;20181;-67
2021/12/05 04:35:56;;;;;;;35.97;19.23;;;0.90;99.90;;;;;;8448101;28;20295;-68
2021/12/05 04:39:57;;;;;;;29.93;17.90;;;1.00;99.90;;;;;;8442374;28;20215;-69
2021/12/05 04:43:59;;;;;;;29.97;17.33;;;1.00;99.90;;;;;;8455044;28;20188;-67
2021/12/05 04:48:02;;;;;;;26.63;16.50;;;1.10;99.90;;;;;;8450600;28;20183;-68
2021/12/05 04:52:03;;;;;;;31.23;17.17;;;1.10;99.90;;;;;;8420226;28;20275;-66
2021/12/05 04:56:05;;;;;;;34.33;18.50;;;1.20;99.90;;;;;;8428120;28;20187;-67
2021/12/05 05:00:12;;;;;;;32.50;17.80;;;1.20;99.90;;;;;;8435276;28;20261;-65
2021/12/05 05:04:42;;;;;;;25.33;16.13;;;1.30;99.90;;;;;;8454069;27;20275;-67
2021/12/05 05:08:35;;;;;;;29.20;15.03;;;1.30;99.90;;;;;;8453624;28;20218;-68
2021/12/05 05:12:36;;;;;;;23.40;14.30;;;1.30;99.90;;;;;;8450491;28;20191;-67
2021/12/05 05:16:37;;;;;;;21.33;13.40;;;1.30;99.90;;;;;;8419231;28;20458;-68
2021/12/05 05:29:25;;;;;;;21.70;12.93;;;1.40;99.90;;;;;;8433497;28;20183;-65
2021/12/05 05:46:38;;;;;;;13.43;9.27;;;1.50;99.90;;;;;;8434485;28;20533;-65
2021/12/05 05:50:40;;;;;;;12.20;8.23;;;1.40;99.90;;;;;;8438083;28;20302;-64
2021/12/05 05:54:45;;;;;;;11.37;7.93;;;1.50;99.90;;;;;;8450518;28;20188;-65
2021/12/05 05:59:16;;;;;;;11.30;6.70;;;1.50;99.90;;;;;;8434203;28;20204;-66
2021/12/05 06:03:21;;;;;;;10.50;6.83;;;1.50;99.90;;;;;;8435956;28;20240;-66
2021/12/05 06:07:21;;;;;;;8.87;5.77;;;1.50;99.90;;;;;;8436751;28;20191;-64
2021/12/05 06:11:23;;;;;;;9.90;6.77;;;1.50;99.90;;;;;;8451046;28;20519;-64
2021/12/05 06:15:26;;;;;;;9.13;6.53;;;1.50;99.90;;;;;;8449912;27;20180;-64
2021/12/05 06:19:27;;;;;;;9.60;6.83;;;1.50;99.90;;;;;;8445487;28;20196;-64
2021/12/05 06:23:28;;;;;;;10.40;6.87;;;1.50;99.90;;;;;;8416500;28;20319;-64
2021/12/05 06:27:29;;;;;;;9.23;6.83;;;1.60;99.90;;;;;;8440003;28;20196;-65
2021/12/05 06:40:34;;;;;;;8.50;6.43;;;1.70;99.90;;;;;;8546161;27;20245;-67
2021/12/05 06:48:56;;;;;;;8.17;6.97;;;1.80;99.90;;;;;;8548417;27;20245;-66
2021/12/05 06:52:57;;;;;;;10.43;7.50;;;1.90;99.90;;;;;;8528267;27;20213;-65
2021/12/05 06:56:57;;;;;;;11.23;7.90;;;1.90;99.90;;;;;;8535990;27;20174;-66
2021/12/05 07:01:01;;;;;;;9.53;7.10;;;1.90;99.90;;;;;;8542990;27;20261;-66
2021/12/05 07:09:05;;;;;;;11.30;8.43;;;2.10;99.90;;;;;;8562819;27;20381;-66
2021/12/05 07:21:45;;;;;;;11.10;7.87;;;2.30;99.90;;;;;;8547255;27;20193;-67
2021/12/05 07:25:52;;;;;;;8.67;6.97;;;2.30;99.90;;;;;;8494075;27;20506;-65
2021/12/05 07:42:53;;;;;;;12.23;8.63;;;2.30;99.90;;;;;;8508524;27;20198;-66
2021/12/05 07:46:54;;;;;;;12.23;9.33;;;2.30;99.90;;;;;;8473181;27;20183;-67
2021/12/05 07:51:21;;;;;;;13.03;8.33;;;2.40;99.90;;;;;;8488869;27;20265;-67
2021/12/05 07:55:30;;;;;;;14.23;9.13;;;2.40;99.90;;;;;;8472621;27;20214;-66
2021/12/05 08:16:51;;;;;;;13.37;9.23;;;2.50;99.90;;;;;;8500607;27;20289;-67
2021/12/05 08:20:51;;;;;;;14.50;10.00;;;2.50;99.90;;;;;;8504110;27;20175;-69
2021/12/05 08:24:52;;;;;;;14.23;10.37;;;2.60;99.90;;;;;;8464026;27;20219;-66
2021/12/05 09:29:13;;;;;;;15.20;10.90;;;2.90;99.90;;;;;;8487350;27;20216;-67
2021/12/05 10:17:20;;;;;;;12.47;8.60;;;3.50;99.90;;;;;;8490678;27;20175;-67
2021/12/05 10:38:54;;;;;;;14.40;8.97;;;3.50;99.90;;;;;;8476167;27;20230;-66
2021/12/05 10:42:55;;;;;;;14.60;9.37;;;3.50;99.90;;;;;;8490710;27;20184;-67
2021/12/05 10:46:56;;;;;;;15.50;9.30;;;3.40;99.90;;;;;;8473156;27;20516;-66
2021/12/05 10:51:04;;;;;;;11.17;7.77;;;3.40;99.90;;;;;;8472254;27;20182;-67
2021/12/05 10:55:08;;;;;;;12.17;8.43;;;3.40;99.90;;;;;;8466627;27;20298;-67
2021/12/05 10:59:18;;;;;;;11.13;8.13;;;3.50;99.90;;;;;;8489661;27;20155;-68
2021/12/05 11:03:22;;;;;;;11.33;7.67;;;3.50;99.90;;;;;;8478257;27;20376;-67
2021/12/05 11:07:23;;;;;;;10.80;7.70;;;3.60;99.90;;;;;;8484908;28;20234;-67
2021/12/05 11:11:26;;;;;;;12.10;8.40;;;3.70;99.90;;;;;;8465191;28;20215;-67
2021/12/05 11:15:35;;;;;;;12.13;8.00;;;3.60;99.90;;;;;;8479591;27;20208;-67
2021/12/05 11:19:43;;;;;;;11.90;8.03;;;3.50;99.90;;;;;;8489529;27;20171;-66
2021/12/05 11:23:44;;;;;;;14.10;8.37;;;3.40;99.90;;;;;;8472245;27;20195;-67
2021/12/05 11:28:08;;;;;;;10.50;7.70;;;3.30;99.90;;;;;;8493236;27;20190;-67
2021/12/05 11:32:13;;;;;;;10.70;6.80;;;3.20;99.90;;;;;;8507040;27;20240;-67
2021/12/05 11:36:26;;;;;;;10.40;6.83;;;3.30;99.90;;;;;;8485849;27;20179;-66
2021/12/05 11:40:54;;;;;;;14.53;8.70;;;3.20;99.90;;;;;;8471556;27;20179;-67
2021/12/05 11:45:04;;;;;;;14.17;8.30;;;3.20;99.90;;;;;;8482954;27;20195;-66
2021/12/05 11:49:10;;;;;;;11.30;7.20;;;3.10;99.90;;;;;;8489476;27;20187;-66
2021/12/05 11:53:11;;;;;;;21.60;11.00;;;3.10;99.90;;;;;;8471870;27;20214;-66
2021/12/05 11:57:25;;;;;;;16.60;9.67;;;3.00;99.90;;;;;;8468290;27;20180;-66
2021/12/05 12:01:36;;;;;;;13.80;8.90;;;3.00;99.90;;;;;;8472159;27;20175;-67
2021/12/05 12:05:37;;;;;;;15.77;8.83;;;3.00;99.90;;;;;;8490061;27;20255;-67
2021/12/05 12:09:40;;;;;;;10.53;7.17;;;3.00;99.90;;;;;;8476045;27;20179;-66
2021/12/05 12:13:41;;;;;;;11.50;7.23;;;3.00;99.90;;;;;;8479513;27;20207;-67
2021/12/05 12:17:45;;;;;;;8.70;6.07;;;3.10;99.90;;;;;;8479503;27;20208;-66
2021/12/05 12:21:48;;;;;;;9.03;6.37;;;3.20;99.90;;;;;;8455511;27;20280;-66
2021/12/05 12:25:53;;;;;;;8.30;5.90;;;3.20;99.90;;;;;;8500980;27;20211;-66
2021/12/05 12:29:59;;;;;;;9.53;5.87;;;3.40;99.90;;;;;;8472181;27;20597;-66
2021/12/05 12:34:24;;;;;;;9.30;6.40;;;3.40;99.90;;;;;;8488307;27;20214;-67
2021/12/05 12:38:31;;;;;;;8.00;5.40;;;3.40;99.90;;;;;;8503696;27;20199;-67
2021/12/05 12:42:38;;;;;;;8.17;6.17;;;3.40;99.90;;;;;;8464701;27;20184;-66
2021/12/05 12:46:50;;;;;;;11.07;6.73;;;3.30;99.90;;;;;;8500873;27;20463;-66
2021/12/05 12:50:52;;;;;;;12.80;7.47;;;3.20;99.90;;;;;;8475767;27;20179;-66
2021/12/05 12:54:56;;;;;;;15.17;8.67;;;3.00;99.90;;;;;;8488111;27;20211;-66
2021/12/05 12:59:02;;;;;;;17.27;9.60;;;2.90;99.90;;;;;;8485173;27;20200;-66
2021/12/05 13:03:28;;;;;;;17.43;11.03;;;2.80;99.90;;;;;;8495064;27;20221;-66
2021/12/05 13:11:55;;;;;;;18.80;9.13;;;2.60;99.90;;;;;;8498346;27;20655;-66
2021/12/05 13:16:09;;;;;;;17.80;9.87;;;2.50;99.90;;;;;;8480129;27;20214;-67
2021/12/05 13:20:13;;;;;;;22.17;11.43;;;2.50;99.90;;;;;;8462204;27;20187;-67
2021/12/05 13:24:42;;;;;;;18.53;11.40;;;2.40;99.90;;;;;;8491653;27;20207;-66
2021/12/05 13:28:56;;;;;;;20.47;11.17;;;2.40;99.90;;;;;;8471443;27;20179;-67
2021/12/05 13:33:16;;;;;;;25.63;12.40;;;2.40;99.90;;;;;;8512216;27;20205;-67
2021/12/05 13:37:45;;;;;;;27.87;12.73;;;2.40;99.90;;;;;;8472467;27;20264;-68
2021/12/05 13:42:00;;;;;;;24.53;13.03;;;2.40;99.90;;;;;;8482753;27;20191;-67
2021/12/05 13:46:22;;;;;;;25.33;13.20;;;2.40;99.90;;;;;;8468281;27;20175;-68
2021/12/05 13:50:25;;;;;;;26.23;13.57;;;2.30;99.90;;;;;;8485297;27;20183;-66
2021/12/05 13:54:28;;;;;;;23.80;11.50;;;2.30;99.90;;;;;;8486248;27;20207;-67
2021/12/05 13:58:35;;;;;;;23.93;11.67;;;2.30;99.90;;;;;;8468617;27;20611;-67
2021/12/05 14:02:54;;;;;;;24.37;13.23;;;2.20;99.90;;;;;;8475617;27;20190;-68
2021/12/05 14:07:09;;;;;;;28.53;13.13;;;2.20;99.90;;;;;;8484059;27;20171;-68
2021/12/05 14:11:11;;;;;;;25.30;12.10;;;2.20;99.90;;;;;;8471967;27;20909;-68
2021/12/05 14:15:15;;;;;;;31.47;13.50;;;2.10;99.90;;;;;;8467189;27;20222;-68
2021/12/05 14:19:19;;;;;;;32.30;13.97;;;2.10;99.90;;;;;;8465765;27;20206;-66
2021/12/05 14:23:22;;;;;;;32.07;14.17;;;2.10;99.90;;;;;;8466937;27;20198;-67
2021/12/05 14:27:28;;;;;;;30.70;14.00;;;2.10;99.90;;;;;;8463279;27;20210;-68
2021/12/05 14:31:33;;;;;;;32.13;13.57;;;2.00;99.90;;;;;;8495710;27;20598;-67
2021/12/05 14:35:39;;;;;;;32.47;13.67;;;2.00;99.90;;;;;;8519458;27;20566;-68
2021/12/05 14:39:45;;;;;;;38.77;13.97;;;2.00;99.90;;;;;;8517315;27;20315;-67
2021/12/05 14:43:56;;;;;;;37.17;15.83;;;2.00;99.90;;;;;;8499588;27;20224;-66
2021/12/05 14:48:04;;;;;;;37.10;16.50;;;1.90;99.90;;;;;;8513805;27;20176;-68
2021/12/05 14:52:16;;;;;;;37.37;16.23;;;1.90;99.90;;;;;;8483384;28;20332;-66
2021/12/05 14:56:27;;;;;;;43.07;17.53;;;1.90;99.90;;;;;;8469929;27;20230;-68
2021/12/05 15:00:39;;;;;;;39.00;16.50;;;1.90;99.90;;;;;;8474183;27;20172;-68
2021/12/05 15:04:47;;;;;;;33.93;14.03;;;1.80;99.90;;;;;;8472008;27;20185;-67
2021/12/05 15:08:48;;;;;;;34.20;13.83;;;1.80;99.90;;;;;;8478582;27;20171;-67
2021/12/05 15:12:52;;;;;;;36.03;14.67;;;1.80;99.90;;;;;;8485238;27;20242;-68
2021/12/05 15:17:00;;;;;;;32.57;14.13;;;1.80;99.90;;;;;;8515737;27;20174;-68
2021/12/05 15:21:03;;;;;;;31.70;13.37;;;1.80;99.90;;;;;;8503696;27;20182;-65
2021/12/05 15:25:07;;;;;;;33.53;15.43;;;1.70;99.90;;;;;;8489165;27;20202;-65
2021/12/05 15:29:08;;;;;;;36.73;16.13;;;1.70;99.90;;;;;;8485049;27;20183;-65
2021/12/05 15:33:22;;;;;;;32.00;13.43;;;1.70;99.90;;;;;;8498035;27;20258;-64
2021/12/05 15:37:23;;;;;;;38.97;16.43;;;1.70;99.90;;;;;;8493275;27;20168;-64
2021/12/05 15:41:27;;;;;;;42.83;16.37;;;1.60;99.90;;;;;;8487698;27;20179;-66
2021/12/05 15:45:29;;;;;;;32.57;13.60;;;1.60;99.90;;;;;;8470459;27;20214;-64
2021/12/05 15:49:49;;;;;;;35.03;14.20;;;1.60;99.90;;;;;;8470662;27;20179;-64
2021/12/05 15:53:57;;;;;;;33.07;13.80;;;1.60;99.90;;;;;;8468793;27;20187;-65
2021/12/05 15:58:24;;;;;;;30.87;14.40;;;1.50;99.90;;;;;;8482175;27;20296;-66
2021/12/05 16:02:24;;;;;;;26.37;11.33;;;1.50;99.90;;;;;;8471406;27;20175;-65
2021/12/05 16:06:36;;;;;;;23.57;11.80;;;1.40;99.90;;;;;;8460450;27;20183;-66
2021/12/05 16:10:43;;;;;;;28.63;13.60;;;1.30;99.90;;;;;;8471580;27;20194;-65
2021/12/05 16:14:48;;;;;;;25.47;11.20;;;1.30;99.90;;;;;;8462304;27;20203;-65
2021/12/05 16:18:54;;;;;;;25.73;10.97;;;1.30;99.90;;;;;;8487506;27;20254;-63
2021/12/05 16:23:17;;;;;;;21.83;10.00;;;1.30;99.90;;;;;;8487158;27;20206;-64
2021/12/05 16:27:19;;;;;;;13.83;9.13;;;1.30;99.90;;;;;;8482192;27;20174;-67
2021/12/05 16:31:35;;;;;;;18.20;9.57;;;1.30;99.90;;;;;;8493878;27;20178;-67
2021/12/05 16:35:43;;;;;;;19.00;9.47;;;1.20;99.90;;;;;;8487463;27;20209;-65
2021/12/05 16:39:55;;;;;;;22.37;11.20;;;1.10;99.90;;;;;;8467434;27;20175;-65
2021/12/05 16:44:11;;;;;;;20.03;10.30;;;1.10;99.90;;;;;;8496296;27;20207;-65
2021/12/05 16:48:18;;;;;;;19.03;9.77;;;1.00;99.90;;;;;;8440359;27;20230;-64
2021/12/05 16:52:20;;;;;;;20.67;10.87;;;1.00;99.90;;;;;;8468111;27;20179;-65
2021/12/05 16:57:08;;;;;;;22.80;11.77;;;1.00;99.90;;;;;;8462721;27;20185;-66
2021/12/05 17:01:19;;;;;;;27.50;11.87;;;0.90;99.90;;;;;;8403742;28;20195;-65
2021/12/05 17:05:24;;;;;;;32.70;13.13;;;0.90;99.90;;;;;;8485765;27;20193;-65
2021/12/05 17:09:26;;;;;;;36.33;14.93;;;0.90;99.90;;;;;;8486060;27;20179;-65
2021/12/05 17:13:35;;;;;;;27.80;13.97;;;0.90;99.90;;;;;;8465857;27;20199;-65
2021/12/05 17:17:37;;;;;;;42.53;17.17;;;0.80;99.90;;;;;;8466225;27;20183;-68
2021/12/05 17:21:47;;;;;;;53.13;17.80;;;0.80;99.90;;;;;;8465787;27;20185;-66
2021/12/05 17:25:54;;;;;;;37.90;16.97;;;0.80;99.90;;;;;;8467827;27;20185;-66
2021/12/05 17:29:55;;;;;;;41.10;16.83;;;0.80;99.90;;;;;;8474217;27;20467;-66
2021/12/05 17:33:59;;;;;;;49.83;20.33;;;0.80;99.90;;;;;;8484029;27;20244;-65
2021/12/05 17:38:00;;;;;;;56.37;19.87;;;0.80;99.90;;;;;;8433198;28;20185;-65
2021/12/05 17:42:06;;;;;;;49.87;18.67;;;0.70;99.90;;;;;;8435319;27;20194;-64
2021/12/05 17:46:08;;;;;;;52.40;20.67;;;0.80;99.90;;;;;;8475153;27;20185;-65
2021/12/05 17:50:16;;;;;;;68.67;23.97;;;0.70;99.90;;;;;;8484472;27;20270;-67
2021/12/05 17:54:28;;;;;;;65.20;23.97;;;0.70;99.90;;;;;;8484246;27;20834;-65
2021/12/05 18:02:58;;;;;;;55.20;21.00;;;0.70;99.90;;;;;;8444842;27;20248;-65
2021/12/05 18:06:59;;;;;;;58.57;22.73;;;0.60;99.90;;;;;;8466847;27;20187;-65
2021/12/05 18:11:03;;;;;;;46.90;22.07;;;0.60;99.90;;;;;;8474019;27;20196;-67
2021/12/05 18:15:11;;;;;;;57.00;22.70;;;0.60;99.90;;;;;;8473478;27;20230;-67
2021/12/05 18:19:16;;;;;;;55.87;22.93;;;0.70;99.90;;;;;;8490051;27;20222;-64
2021/12/05 18:23:20;;;;;;;58.83;23.67;;;0.70;99.90;;;;;;8484168;27;20198;-68
2021/12/05 18:27:21;;;;;;;53.70;21.23;;;0.60;99.90;;;;;;8464471;27;20183;-64
2021/12/05 18:31:26;;;;;;;60.20;23.20;;;0.60;99.90;;;;;;8455920;28;20223;-64
2021/12/05 18:35:31;;;;;;;47.90;21.57;;;0.60;99.90;;;;;;8431284;28;20221;-65
2021/12/05 18:39:38;;;;;;;56.90;22.67;;;0.60;99.90;;;;;;8431406;28;20186;-65
2021/12/05 18:43:42;;;;;;;51.40;21.60;;;0.50;99.90;;;;;;8463258;27;20308;-66
2021/12/05 18:47:45;;;;;;;46.97;19.97;;;0.50;99.90;;;;;;8466626;28;20185;-65
2021/12/05 18:51:46;;;;;;;50.50;21.20;;;0.50;99.90;;;;;;8464192;28;20269;-64
2021/12/05 18:55:49;;;;;;;51.70;20.90;;;0.40;99.90;;;;;;8465462;27;20287;-64
2021/12/05 19:00:01;;;;;;;49.67;20.50;;;0.40;99.90;;;;;;8498079;27;20674;-66
2021/12/05 19:09:07;;;;;;;60.43;23.33;;;0.40;99.90;;;;;;8396165;28;20230;-65
2021/12/05 19:13:04;;;;;;;78.23;26.47;;;0.40;99.90;;;;;;8465928;27;20481;-67
2021/12/05 19:17:10;;;;;;;70.67;25.33;;;0.40;99.90;;;;;;8481660;27;20173;-65
2021/12/05 19:21:12;;;;;;;71.17;26.63;;;0.30;99.90;;;;;;8463964;28;20182;-64
2021/12/05 19:25:23;;;;;;;68.47;24.20;;;0.30;99.90;;;;;;8465711;27;20206;-65
2021/12/05 19:29:27;;;;;;;68.43;25.50;;;0.30;99.90;;;;;;8492676;27;20181;-66
2021/12/05 19:33:30;;;;;;;66.30;25.17;;;0.30;99.90;;;;;;8464332;28;20221;-65
2021/12/05 19:37:31;;;;;;;66.67;25.97;;;0.30;99.90;;;;;;8432998;28;20170;-64
2021/12/05 19:41:33;;;;;;;71.03;28.87;;;0.30;99.90;;;;;;8447668;27;20173;-65
2021/12/05 19:45:35;;;;;;;73.50;28.23;;;0.30;99.90;;;;;;8482687;27;20180;-65
2021/12/05 19:49:38;;;;;;;64.80;26.47;;;0.30;99.90;;;;;;8486684;27;20194;-65
2021/12/05 19:53:42;;;;;;;74.97;27.37;;;0.30;99.90;;;;;;8487283;27;20230;-65
2021/12/05 19:57:46;;;;;;;70.60;29.20;;;0.30;99.90;;;;;;8463677;27;20222;-65
2021/12/05 20:01:49;;;;;;;80.83;30.17;;;0.30;99.90;;;;;;8458564;27;20188;-64
2021/12/05 20:05:51;;;;;;;71.67;30.53;;;0.30;99.90;;;;;;8470657;27;20188;-64
2021/12/05 20:09:56;;;;;;;83.30;29.70;;;0.30;99.90;;;;;;8473916;27;20191;-65
2021/12/05 20:13:58;;;;;;;79.30;30.40;;;0.30;99.90;;;;;;8485606;27;20208;-65
2021/12/05 20:18:01;;;;;;;79.33;30.43;;;0.20;99.90;;;;;;8452545;28;20171;-65
2021/12/05 20:22:04;;;;;;;92.67;31.37;;;0.20;99.90;;;;;;8461427;27;20189;-63
2021/12/05 20:26:05;;;;;;;71.90;26.73;;;0.20;99.90;;;;;;8463691;27;20229;-65
2021/12/05 20:30:10;;;;;;;94.93;34.03;;;0.20;99.90;;;;;;8484363;27;20199;-65
2021/12/05 20:34:14;;;;;;;90.43;30.43;;;0.20;99.90;;;;;;8482536;27;20225;-67
2021/12/05 20:38:16;;;;;;;76.87;29.00;;;0.20;99.90;;;;;;8453250;28;20190;-63
2021/12/05 20:42:18;;;;;;;84.33;29.17;;;0.20;99.90;;;;;;8456226;27;20216;-65
2021/12/05 20:46:19;;;;;;;81.10;30.57;;;0.20;99.90;;;;;;8495358;27;20192;-66
2021/12/05 20:50:21;;;;;;;86.73;30.20;;;0.20;99.90;;;;;;8496653;27;20192;-64
2021/12/05 20:54:25;;;;;;;92.00;32.00;;;0.20;99.90;;;;;;8467920;27;20209;-64
2021/12/05 20:58:28;;;;;;;93.53;32.70;;;0.20;99.90;;;;;;8495932;27;20176;-65
2021/12/05 21:02:31;;;;;;;94.83;31.90;;;0.20;99.90;;;;;;8489741;27;20185;-66
2021/12/05 21:06:34;;;;;;;98.17;32.90;;;0.20;99.90;;;;;;8480295;27;20176;-63
2021/12/05 21:10:43;;;;;;;88.87;31.50;;;0.20;99.90;;;;;;8516820;27;20179;-65
2021/12/05 21:14:45;;;;;;;106.03;33.33;;;0.20;99.90;;;;;;8505837;27;20339;-66
2021/12/05 21:18:46;;;;;;;104.10;33.77;;;0.20;99.90;;;;;;8521183;27;20559;-64
2021/12/05 21:22:48;;;;;;;86.67;32.27;;;0.20;99.90;;;;;;8494123;27;20217;-65
2021/12/05 21:26:51;;;;;;;97.50;34.23;;;0.20;99.90;;;;;;8470480;27;20590;-65
2021/12/05 21:30:54;;;;;;;92.27;33.60;;;0.20;99.90;;;;;;8500447;27;20172;-66
2021/12/05 21:34:56;;;;;;;96.43;33.20;;;0.20;99.90;;;;;;8488146;27;20217;-65
2021/12/05 21:38:59;;;;;;;108.80;34.73;;;0.20;99.90;;;;;;8467904;27;20275;-68
2021/12/05 21:43:01;;;;;;;96.43;33.27;;;0.20;99.90;;;;;;8471007;27;20184;-64
2021/12/05 21:47:03;;;;;;;94.37;31.40;;;0.20;99.90;;;;;;8489628;27;20184;-64
2021/12/05 21:51:06;;;;;;;98.93;34.67;;;0.20;99.90;;;;;;8466843;27;20496;-66
2021/12/05 21:55:08;;;;;;;92.03;34.07;;;0.20;99.90;;;;;;8485164;27;20222;-64
2021/12/05 21:59:09;;;;;;;84.33;29.40;;;0.20;99.90;;;;;;8492708;27;20255;-64
2021/12/05 22:03:11;;;;;;;93.33;32.03;;;0.20;99.90;;;;;;8483911;27;20216;-67
2021/12/05 22:07:12;;;;;;;109.80;33.57;;;0.20;99.90;;;;;;8449750;28;20189;-65
2021/12/05 22:11:14;;;;;;;95.37;29.77;;;0.20;99.90;;;;;;8450345;28;20177;-65
2021/12/05 22:15:20;;;;;;;99.50;31.60;;;0.20;99.90;;;;;;8482953;27;20206;-65
2021/12/05 22:19:21;;;;;;;96.67;31.10;;;0.20;99.90;;;;;;8495591;27;20268;-65
2021/12/05 22:23:26;;;;;;;111.00;31.97;;;0.20;99.90;;;;;;8483280;27;20195;-64
2021/12/05 22:27:29;;;;;;;96.53;31.60;;;0.20;99.90;;;;;;8485328;27;20277;-64
2021/12/05 22:31:32;;;;;;;82.40;29.60;;;0.20;99.90;;;;;;8486990;27;20194;-63
2021/12/05 22:35:35;;;;;;;99.27;32.33;;;0.20;99.90;;;;;;8485447;27;20210;-63
2021/12/05 22:39:36;;;;;;;93.50;30.53;;;0.20;99.90;;;;;;8465726;28;20287;-64
2021/12/05 22:43:38;;;;;;;104.43;33.23;;;0.30;99.90;;;;;;8491719;27;20194;-66
2021/12/05 22:47:39;;;;;;;98.60;31.73;;;0.20;99.90;;;;;;8483631;28;20184;-65
2021/12/05 22:51:41;;;;;;;98.93;30.93;;;0.20;99.90;;;;;;8465277;28;20188;-66
2021/12/05 22:55:42;;;;;;;94.00;31.73;;;0.20;99.90;;;;;;8465021;27;20215;-63
2021/12/05 22:59:43;;;;;;;92.87;32.57;;;0.20;99.90;;;;;;8499346;27;20210;-65
2021/12/05 23:03:51;;;;;;;91.47;30.43;;;0.20;99.90;;;;;;8464247;28;20191;-63
2021/12/05 23:07:52;;;;;;;95.03;32.33;;;0.20;99.90;;;;;;8486278;28;20183;-64
2021/12/05 23:11:57;;;;;;;76.63;26.87;;;0.20;99.90;;;;;;8461977;28;20214;-64
2021/12/05 23:15:58;;;;;;;92.07;30.70;;;0.20;99.90;;;;;;8475337;27;20245;-64
2021/12/05 23:19:59;;;;;;;77.47;31.37;;;0.20;99.90;;;;;;8471066;27;20495;-64
2021/12/05 23:24:03;;;;;;;85.73;31.67;;;0.30;99.90;;;;;;8471593;27;20211;-64
2021/12/05 23:28:04;;;;;;;87.50;29.97;;;0.30;99.90;;;;;;8491488;27;20189;-63
2021/12/05 23:32:10;;;;;;;89.60;30.50;;;0.30;99.90;;;;;;8477570;27;20189;-64
2021/12/05 23:36:11;;;;;;;79.00;29.80;;;0.20;99.90;;;;;;8451414;28;20309;-64
2021/12/05 23:40:13;;;;;;;93.90;29.87;;;0.30;99.90;;;;;;8455415;27;20173;-64
2021/12/05 23:44:14;;;;;;;87.33;30.73;;;0.30;99.90;;;;;;8471003;27;20197;-64
2021/12/05 23:48:17;;;;;;;74.20;28.27;;;0.20;99.90;;;;;;8516042;27;20189;-64
2021/12/05 23:52:18;;;;;;;81.43;29.07;;;0.30;99.90;;;;;;8463829;27;20192;-64
2021/12/05 23:56:19;;;;;;;92.37;29.83;;;0.30;99.90;;;;;;8466988;27;20202;-64
